createdAt,value
2018-07-13T00:01:08.323Z,23.27
2018-07-13T00:03:38.223Z,23.33
2018-07-13T00:06:08.157Z,23.31
2018-07-13T00:08:37.995Z,23.30
2018-07-13T00:11:07.825Z,23.27
2018-07-13T00:14:19.372Z,23.26
2018-07-13T00:16:50.211Z,23.11
2018-07-13T00:19:20.899Z,23.02
2018-07-13T00:21:50.899Z,22.85
2018-07-13T00:24:20.767Z,22.76
2018-07-13T00:26:50.668Z,22.79
2018-07-13T00:29:20.623Z,22.73
2018-07-13T00:31:50.707Z,22.76
2018-07-13T00:34:20.709Z,22.75
2018-07-13T00:36:50.647Z,22.74
2018-07-13T00:39:20.808Z,22.70
2018-07-13T00:41:50.745Z,22.69
2018-07-13T00:44:20.899Z,22.64
2018-07-13T00:46:50.877Z,22.62
2018-07-13T00:49:21.122Z,22.58
2018-07-13T00:51:50.869Z,22.60
2018-07-13T00:54:20.844Z,22.68
2018-07-13T00:56:50.864Z,22.82
2018-07-13T00:59:20.785Z,22.90
2018-07-13T01:01:50.725Z,22.90
2018-07-13T01:04:20.861Z,22.89
2018-07-13T01:06:50.917Z,22.86
2018-07-13T01:09:20.921Z,22.84
2018-07-13T01:11:50.876Z,22.84
2018-07-13T01:14:20.852Z,22.82
2018-07-13T01:16:50.808Z,22.71
2018-07-13T01:19:20.783Z,22.72
2018-07-13T01:21:50.880Z,22.65
2018-07-13T01:24:20.979Z,22.56
2018-07-13T01:26:50.874Z,22.53
2018-07-13T01:29:21.053Z,22.56
2018-07-13T01:31:51.032Z,22.58
2018-07-13T01:34:21.012Z,22.65
2018-07-13T01:36:51.016Z,22.67
2018-07-13T01:39:20.935Z,22.57
2018-07-13T01:41:50.925Z,22.57
2018-07-13T01:44:20.819Z,22.51
2018-07-13T01:46:50.725Z,22.47
2018-07-13T01:49:20.784Z,22.51
2018-07-13T01:51:50.518Z,22.49
2018-07-13T01:54:20.573Z,22.47
2018-07-13T01:56:50.568Z,22.55
2018-07-13T01:59:20.548Z,22.55
2018-07-13T02:01:50.713Z,22.51
2018-07-13T02:04:20.639Z,22.56
2018-07-13T02:06:50.591Z,22.57
2018-07-13T02:09:20.503Z,22.57
2018-07-13T02:11:50.530Z,22.61
2018-07-13T02:14:20.344Z,22.63
2018-07-13T02:16:50.388Z,22.55
2018-07-13T02:19:20.259Z,22.40
2018-07-13T02:21:50.253Z,22.29
2018-07-13T02:24:20.159Z,22.27
2018-07-13T02:26:50.129Z,22.26
2018-07-13T02:29:20.149Z,22.26
2018-07-13T02:31:50.088Z,22.26
2018-07-13T02:34:20.058Z,22.21
2018-07-13T02:36:49.991Z,22.19
2018-07-13T02:39:19.866Z,22.12
2018-07-13T02:41:49.781Z,22.15
2018-07-13T02:44:19.716Z,22.13
2018-07-13T02:46:49.855Z,22.13
2018-07-13T02:49:19.834Z,22.16
2018-07-13T02:51:49.695Z,22.16
2018-07-13T02:54:19.922Z,22.18
2018-07-13T02:56:50.266Z,22.16
2018-07-13T02:59:20.931Z,22.21
2018-07-13T03:01:51.173Z,22.26
2018-07-13T03:04:21.948Z,22.35
2018-07-13T03:06:52.376Z,22.42
2018-07-13T03:09:22.452Z,22.46
2018-07-13T03:11:52.384Z,22.48
2018-07-13T03:14:22.449Z,22.45
2018-07-13T03:16:52.823Z,22.65
2018-07-13T03:19:22.942Z,22.61
2018-07-13T03:21:53.181Z,22.75
2018-07-13T03:24:23.068Z,22.69
2018-07-13T03:26:53.073Z,22.78
2018-07-13T03:29:23.083Z,22.92
2018-07-13T03:31:53.052Z,22.94
2018-07-13T03:34:23.189Z,23.03
2018-07-13T03:36:53.255Z,23.20
2018-07-13T03:39:23.496Z,23.30
2018-07-13T03:41:53.335Z,23.19
2018-07-13T03:44:23.260Z,23.28
2018-07-13T03:46:53.101Z,23.63
2018-07-13T03:49:22.944Z,23.43
2018-07-13T03:51:52.781Z,23.21
2018-07-13T03:54:23.777Z,23.36
2018-07-13T03:56:53.680Z,23.50
2018-07-13T03:59:23.507Z,23.53
2018-07-13T04:01:53.948Z,23.54
2018-07-13T04:04:24.024Z,23.57
2018-07-13T04:06:54.071Z,23.49
2018-07-13T04:09:24.123Z,23.52
2018-07-13T04:11:54.241Z,23.46
2018-07-13T04:14:24.212Z,23.45
2018-07-13T04:16:54.068Z,23.77
2018-07-13T04:19:25.199Z,23.60
2018-07-13T04:21:55.117Z,23.61
2018-07-13T04:24:25.001Z,23.77
2018-07-13T04:26:55.060Z,23.63
2018-07-13T04:29:25.856Z,23.92
2018-07-13T04:31:56.306Z,23.99
2018-07-13T04:34:26.455Z,24.01
2018-07-13T04:36:56.540Z,23.95
2018-07-13T04:39:26.400Z,23.94
2018-07-13T04:41:56.565Z,24.16
2018-07-13T04:44:26.367Z,24.00
2018-07-13T04:46:56.392Z,23.78
2018-07-13T04:49:26.349Z,23.88
2018-07-13T04:51:56.162Z,23.86
2018-07-13T04:54:25.977Z,23.94
2018-07-13T04:56:56.268Z,24.00
2018-07-13T04:59:26.363Z,24.10
2018-07-13T05:01:56.387Z,24.26
2018-07-13T05:04:26.331Z,24.33
2018-07-13T05:06:56.273Z,24.28
2018-07-13T05:09:26.215Z,24.32
2018-07-13T05:11:57.266Z,24.39
2018-07-13T05:14:27.245Z,24.60
2018-07-13T05:16:57.317Z,24.59
2018-07-13T05:19:27.606Z,24.64
2018-07-13T05:21:57.511Z,24.59
2018-07-13T05:24:27.582Z,24.58
2018-07-13T05:26:57.713Z,24.61
2018-07-13T05:29:27.725Z,24.81
2018-07-13T05:31:58.291Z,25.05
2018-07-13T05:34:28.479Z,25.46
2018-07-13T05:36:58.735Z,25.07
2018-07-13T05:39:28.652Z,25.18
2018-07-13T05:41:58.710Z,25.43
2018-07-13T05:44:28.714Z,25.61
2018-07-13T05:46:58.905Z,25.58
2018-07-13T05:49:28.839Z,25.52
2018-07-13T05:51:58.870Z,25.43
2018-07-13T05:54:29.004Z,25.64
2018-07-13T05:56:59.048Z,25.93
2018-07-13T05:59:29.206Z,25.79
2018-07-13T06:01:59.141Z,25.93
2018-07-13T06:04:29.449Z,25.85
2018-07-13T06:06:59.585Z,25.94
2018-07-13T06:09:29.848Z,26.15
2018-07-13T06:12:00.588Z,26.25
2018-07-13T06:14:30.751Z,26.38
2018-07-13T06:17:00.996Z,26.19
2018-07-13T06:19:31.096Z,26.16
2018-07-13T06:22:01.053Z,26.53
2018-07-13T06:24:31.093Z,26.66
2018-07-13T06:27:01.072Z,26.77
2018-07-13T06:29:31.516Z,26.96
2018-07-13T06:32:01.426Z,26.90
2018-07-13T06:34:31.555Z,26.88
2018-07-13T06:37:01.457Z,27.20
2018-07-13T06:39:31.628Z,27.06
2018-07-13T06:42:01.941Z,27.26
2018-07-13T06:44:31.944Z,27.30
2018-07-13T06:47:02.030Z,27.24
2018-07-13T06:49:32.086Z,27.45
2018-07-13T06:52:01.887Z,27.54
2018-07-13T06:54:32.352Z,27.63
2018-07-13T06:57:08.952Z,27.89
2018-07-13T06:59:38.973Z,28.05
2018-07-13T07:02:13.731Z,28.29
2018-07-13T07:04:43.866Z,28.25
2018-07-13T07:07:20.977Z,28.48
2018-07-13T07:09:54.149Z,28.59
2018-07-13T07:13:00.435Z,28.61
2018-07-13T07:15:29.938Z,29.12
2018-07-13T07:17:59.764Z,29.10
2018-07-13T07:20:29.972Z,28.75
2018-07-13T07:22:59.932Z,28.61
2018-07-13T07:25:29.799Z,28.65
2018-07-13T07:27:59.696Z,29.31
2018-07-13T07:30:29.673Z,29.60
2018-07-13T07:32:59.643Z,30.00
2018-07-13T07:35:29.721Z,30.50
2018-07-13T07:37:59.904Z,29.88
2018-07-13T07:40:29.977Z,30.20
2018-07-13T07:42:59.857Z,30.23
2018-07-13T07:45:29.956Z,30.19
2018-07-13T07:47:59.845Z,29.93
2018-07-13T07:50:29.630Z,29.99
2018-07-13T07:52:59.484Z,30.70
2018-07-13T07:55:29.406Z,31.20
2018-07-13T07:57:59.720Z,31.08
2018-07-13T08:00:29.888Z,30.11
2018-07-13T08:02:59.878Z,30.37
2018-07-13T08:05:29.949Z,30.78
2018-07-13T08:07:59.907Z,31.41
2018-07-13T08:10:29.848Z,31.37
2018-07-13T08:12:59.765Z,31.03
2018-07-13T08:15:30.196Z,30.90
2018-07-13T08:18:00.099Z,30.95
2018-07-13T08:20:31.508Z,30.82
2018-07-13T08:23:06.914Z,30.63
2018-07-13T08:25:37.728Z,31.20
2018-07-13T08:28:08.635Z,30.99
2018-07-13T08:30:46.645Z,30.93
2018-07-13T08:33:16.525Z,31.55
2018-07-13T08:35:46.534Z,31.65
2018-07-13T08:38:16.495Z,31.78
2018-07-13T08:40:46.429Z,32.14
2018-07-13T08:43:16.328Z,31.02
2018-07-13T08:46:02.499Z,30.85
2018-07-13T08:48:37.965Z,31.02
2018-07-13T08:51:07.975Z,31.87
2018-07-13T08:53:37.776Z,32.18
2018-07-13T08:56:08.060Z,32.94
2018-07-13T08:58:38.033Z,32.95
2018-07-13T09:01:08.141Z,32.70
2018-07-13T09:03:38.132Z,33.64
2018-07-13T09:06:08.083Z,34.01
2018-07-13T09:08:37.955Z,33.92
2018-07-13T09:11:08.491Z,32.84
2018-07-13T09:13:38.419Z,33.34
2018-07-13T09:16:08.391Z,33.99
2018-07-13T09:18:38.545Z,32.81
2018-07-13T09:21:08.496Z,33.52
2018-07-13T09:23:38.616Z,32.42
2018-07-13T09:26:08.660Z,32.53
2018-07-13T09:28:38.665Z,31.28
2018-07-13T09:31:08.670Z,31.55
2018-07-13T09:33:38.714Z,32.10
2018-07-13T09:36:08.801Z,32.38
2018-07-13T09:38:38.823Z,32.36
2018-07-13T09:41:08.854Z,31.86
2018-07-13T09:43:38.791Z,32.44
2018-07-13T09:46:08.768Z,33.10
2018-07-13T09:48:38.632Z,33.01
2018-07-13T09:51:08.480Z,33.68
2018-07-13T09:53:38.772Z,32.48
2018-07-13T09:56:08.785Z,33.74
2018-07-13T09:58:39.107Z,33.19
2018-07-13T10:01:14.041Z,33.01
2018-07-13T10:03:44.003Z,32.85
2018-07-13T10:06:14.137Z,33.25
2018-07-13T10:08:44.088Z,32.87
2018-07-13T10:11:14.156Z,32.97
2018-07-13T10:13:44.042Z,32.52
2018-07-13T10:16:13.929Z,32.49
2018-07-13T10:18:43.864Z,32.26
2018-07-13T10:21:13.841Z,32.12
2018-07-13T10:23:44.669Z,32.36
2018-07-13T10:26:26.248Z,32.82
2018-07-13T10:28:56.267Z,32.76
2018-07-13T10:31:26.213Z,33.31
2018-07-13T10:33:56.329Z,32.74
2018-07-13T10:36:26.271Z,33.46
2018-07-13T10:38:56.444Z,34.47
2018-07-13T10:41:26.400Z,34.51
2018-07-13T10:43:56.514Z,33.22
2018-07-13T10:46:26.372Z,34.32
2018-07-13T10:48:56.407Z,34.34
2018-07-13T10:51:26.225Z,33.87
2018-07-13T10:53:56.040Z,33.74
2018-07-13T10:56:26.741Z,33.54
2018-07-13T10:58:56.902Z,32.75
2018-07-13T11:01:26.755Z,33.37
2018-07-13T11:03:56.729Z,33.48
2018-07-13T11:06:26.708Z,33.61
2018-07-13T11:08:56.720Z,33.71
2018-07-13T11:11:26.913Z,33.14
2018-07-13T11:13:57.232Z,33.40
2018-07-13T11:16:27.179Z,33.46
2018-07-13T11:18:57.486Z,32.41
2018-07-13T11:21:27.776Z,33.18
2018-07-13T11:23:57.825Z,33.56
2018-07-13T11:26:27.936Z,33.20
2018-07-13T11:28:57.786Z,33.81
2018-07-13T11:31:27.676Z,34.45
2018-07-13T11:33:57.813Z,34.20
2018-07-13T11:36:27.843Z,33.62
2018-07-13T11:38:57.807Z,32.14
2018-07-13T11:41:28.386Z,32.63
2018-07-13T11:43:58.640Z,32.36
2018-07-13T11:46:28.592Z,31.79
2018-07-13T11:48:58.488Z,32.36
2018-07-13T11:51:28.287Z,32.56
2018-07-13T11:53:58.161Z,32.14
2018-07-13T11:56:28.122Z,30.10
2018-07-13T11:58:58.086Z,29.57
2018-07-13T12:01:28.144Z,29.25
2018-07-13T12:03:58.016Z,28.64
2018-07-13T12:06:27.933Z,26.82
2018-07-13T12:08:57.960Z,25.85
2018-07-13T12:11:27.905Z,25.27
2018-07-13T12:13:58.000Z,25.00
2018-07-13T12:16:28.064Z,25.16
2018-07-13T12:18:57.935Z,25.44
2018-07-13T12:21:28.038Z,25.95
2018-07-13T12:23:57.993Z,26.53
2018-07-13T12:26:28.040Z,26.87
2018-07-13T12:28:58.080Z,26.73
2018-07-13T12:31:28.202Z,27.00
2018-07-13T12:33:58.189Z,27.00
2018-07-13T12:36:28.412Z,26.88
2018-07-13T12:38:58.412Z,24.94
2018-07-13T12:41:28.924Z,23.50
2018-07-13T12:43:59.083Z,22.67
2018-07-13T12:46:29.295Z,22.34
2018-07-13T12:48:59.420Z,22.27
2018-07-13T12:51:29.282Z,21.95
2018-07-13T12:53:59.420Z,22.25
2018-07-13T12:56:29.357Z,22.65
2018-07-13T12:58:59.463Z,22.53
2018-07-13T13:01:29.353Z,23.08
2018-07-13T13:03:59.511Z,23.29
2018-07-13T13:06:29.463Z,23.49
2018-07-13T13:08:59.870Z,23.65
2018-07-13T13:11:29.793Z,23.92
2018-07-13T13:13:59.840Z,24.39
2018-07-13T13:16:30.016Z,25.66
2018-07-13T13:19:00.457Z,27.16
2018-07-13T13:21:30.515Z,27.84
2018-07-13T13:24:00.388Z,28.33
2018-07-13T13:26:30.433Z,28.92
2018-07-13T13:29:00.509Z,28.88
2018-07-13T13:31:30.590Z,29.05
2018-07-13T13:34:00.621Z,29.97
2018-07-13T13:36:30.601Z,28.51
2018-07-13T13:39:00.640Z,29.27
2018-07-13T13:41:30.669Z,28.93
2018-07-13T13:44:00.782Z,29.53
2018-07-13T13:46:30.874Z,30.43
2018-07-13T13:49:00.837Z,30.84
2018-07-13T13:51:30.556Z,30.36
2018-07-13T13:54:00.465Z,28.29
2018-07-13T13:56:30.510Z,29.13
2018-07-13T13:59:00.502Z,30.07
2018-07-13T14:01:30.466Z,30.50
2018-07-13T14:04:00.480Z,30.32
2018-07-13T14:06:30.484Z,31.15
2018-07-13T14:09:01.827Z,30.87
2018-07-13T14:11:31.726Z,30.58
2018-07-13T14:14:01.700Z,31.25
2018-07-13T14:16:31.852Z,30.06
2018-07-13T14:19:01.937Z,29.96
2018-07-13T14:21:31.891Z,31.14
2018-07-13T14:24:01.889Z,32.72
2018-07-13T14:26:32.048Z,31.78
2018-07-13T14:29:02.098Z,31.60
2018-07-13T14:31:31.953Z,34.44
2018-07-13T14:34:25.483Z,34.91
2018-07-13T14:38:43.429Z,37.23
2018-07-13T14:41:13.352Z,34.10
2018-07-13T14:43:43.579Z,32.24
2018-07-13T14:46:13.995Z,32.44
2018-07-13T14:48:44.183Z,34.25
2018-07-13T14:51:13.924Z,35.03
2018-07-13T14:53:43.662Z,34.07
2018-07-13T14:56:13.573Z,34.00
2018-07-13T14:58:43.415Z,34.59
2018-07-13T15:01:13.448Z,36.69
2018-07-13T15:03:43.465Z,34.22
2018-07-13T15:06:13.687Z,35.73
2018-07-13T15:08:43.473Z,36.18
2018-07-13T15:11:13.397Z,38.10
2018-07-13T15:13:43.248Z,39.18
2018-07-13T15:16:13.347Z,35.64
2018-07-13T15:18:43.237Z,34.49
2018-07-13T15:21:13.234Z,31.31
2018-07-13T15:23:43.306Z,30.84
2018-07-13T15:26:13.253Z,31.48
2018-07-13T15:28:43.539Z,30.42
2018-07-13T15:31:13.622Z,31.59
2018-07-13T15:33:43.660Z,31.08
2018-07-13T15:36:13.639Z,31.05
2018-07-13T15:38:43.587Z,31.09
2018-07-13T15:41:13.573Z,31.34
2018-07-13T15:43:43.632Z,30.06
2018-07-13T15:46:13.572Z,29.27
2018-07-13T15:48:43.556Z,28.43
2018-07-13T15:51:13.363Z,28.79
2018-07-13T15:53:43.177Z,28.58
2018-07-13T15:56:13.141Z,28.98
2018-07-13T15:58:43.192Z,30.50
2018-07-13T16:01:13.353Z,32.42
2018-07-13T16:03:43.267Z,33.58
2018-07-13T16:06:13.501Z,32.97
2018-07-13T16:08:43.523Z,32.27
2018-07-13T16:11:13.654Z,32.02
2018-07-13T16:13:43.654Z,30.72
2018-07-13T16:16:13.671Z,28.13
2018-07-13T16:18:49.628Z,27.51
2018-07-13T16:21:19.643Z,27.12
2018-07-13T16:23:49.493Z,27.30
2018-07-13T16:26:19.673Z,26.65
2018-07-13T16:28:49.882Z,26.31
2018-07-13T16:31:20.005Z,26.26
2018-07-13T16:33:50.898Z,26.38
2018-07-13T16:36:20.867Z,26.36
2018-07-13T16:38:50.950Z,26.22
2018-07-13T16:41:21.140Z,26.24
2018-07-13T16:43:51.519Z,26.14
2018-07-13T16:46:21.607Z,25.97
2018-07-13T16:48:51.715Z,25.91
2018-07-13T16:51:21.434Z,25.76
2018-07-13T16:53:51.519Z,25.73
2018-07-13T16:56:21.594Z,25.69
2018-07-13T16:58:51.608Z,25.65
2018-07-13T17:01:21.614Z,25.79
2018-07-13T17:03:51.976Z,25.56
2018-07-13T17:06:21.946Z,25.56
2018-07-13T17:08:52.116Z,25.45
2018-07-13T17:11:21.948Z,25.46
2018-07-13T17:13:52.992Z,25.49
2018-07-13T17:16:22.897Z,25.42
2018-07-13T17:18:52.961Z,25.48
2018-07-13T17:21:23.024Z,25.48
2018-07-13T17:23:53.178Z,25.35
2018-07-13T17:26:23.237Z,25.32
2018-07-13T17:28:53.438Z,25.42
2018-07-13T17:31:23.528Z,25.48
2018-07-13T17:33:53.830Z,25.59
2018-07-13T17:36:23.864Z,25.35
2018-07-13T17:38:53.981Z,25.27
2018-07-13T17:41:24.049Z,25.15
2018-07-13T17:43:54.206Z,25.11
2018-07-13T17:46:24.285Z,25.18
2018-07-13T17:48:54.440Z,24.86
2018-07-13T17:51:24.524Z,24.58
2018-07-13T17:53:54.574Z,24.40
2018-07-13T17:56:24.704Z,23.94
2018-07-13T17:58:54.842Z,23.55
2018-07-13T18:01:24.853Z,23.25
2018-07-13T18:03:54.941Z,22.98
2018-07-13T18:06:25.236Z,22.76
2018-07-13T18:08:55.452Z,22.61
2018-07-13T18:11:25.408Z,22.50
2018-07-13T18:13:55.822Z,22.63
2018-07-13T18:16:25.841Z,23.31
2018-07-13T18:18:55.968Z,23.54
2018-07-13T18:21:27.057Z,23.69
2018-07-13T18:23:57.163Z,23.58
2018-07-13T18:26:27.287Z,23.64
2018-07-13T18:28:57.687Z,23.46
2018-07-13T18:31:27.701Z,23.61
2018-07-13T18:33:57.957Z,23.45
2018-07-13T18:36:28.119Z,23.68
2018-07-13T18:38:59.227Z,23.48
2018-07-13T18:41:30.180Z,23.59
2018-07-13T18:44:00.205Z,23.45
2018-07-13T18:46:30.322Z,23.48
2018-07-13T18:49:00.872Z,23.25
2018-07-13T18:51:30.695Z,23.17
2018-07-13T18:54:01.605Z,23.06
2018-07-13T18:56:31.960Z,23.28
2018-07-13T18:59:02.282Z,22.99
2018-07-13T19:01:32.350Z,22.96
2018-07-13T19:04:02.453Z,23.11
2018-07-13T19:06:32.555Z,22.97
2018-07-13T19:09:02.852Z,23.17
2018-07-13T19:11:33.720Z,23.10
2018-07-13T19:14:03.857Z,23.04
2018-07-13T19:16:33.926Z,23.11
2018-07-13T19:19:04.483Z,23.20
2018-07-13T19:21:34.420Z,23.15
2018-07-13T19:24:04.436Z,23.17
2018-07-13T19:26:34.548Z,23.33
2018-07-13T19:29:04.631Z,23.12
2018-07-13T19:31:34.730Z,23.02
2018-07-13T19:34:04.982Z,22.85
2018-07-13T19:36:35.044Z,22.88
2018-07-13T19:39:05.851Z,22.87
2018-07-13T19:41:35.796Z,22.89
2018-07-13T19:44:05.835Z,22.92
2018-07-13T19:46:35.867Z,22.77
2018-07-13T19:49:05.800Z,22.65
2018-07-13T19:51:35.689Z,22.61
2018-07-13T19:54:05.805Z,22.66
2018-07-13T19:56:35.811Z,22.59
2018-07-13T19:59:06.042Z,22.61
2018-07-13T20:01:36.158Z,22.57
2018-07-13T20:04:06.340Z,22.45
2018-07-13T20:06:36.268Z,22.44
2018-07-13T20:09:07.359Z,22.51
2018-07-13T20:11:37.443Z,22.50
2018-07-13T20:14:07.545Z,22.46
2018-07-13T20:16:37.469Z,22.38
2018-07-13T20:19:07.451Z,22.24
2018-07-13T20:21:37.486Z,22.16
2018-07-13T20:24:07.459Z,22.06
2018-07-13T20:26:37.423Z,22.00
2018-07-13T20:29:07.610Z,21.89
2018-07-13T20:31:37.544Z,21.81
2018-07-13T20:34:07.581Z,21.78
2018-07-13T20:36:37.452Z,21.77
2018-07-13T20:39:07.823Z,21.63
2018-07-13T20:41:38.008Z,21.64
2018-07-13T20:44:08.109Z,21.49
2018-07-13T20:46:38.229Z,21.61
2018-07-13T20:49:08.203Z,21.40
2018-07-13T20:51:38.263Z,21.43
2018-07-13T20:54:08.342Z,21.47
2018-07-13T20:56:38.470Z,21.43
2018-07-13T20:59:08.490Z,21.36
2018-07-13T21:01:38.377Z,21.42
2018-07-13T21:04:08.471Z,21.53
2018-07-13T21:06:38.617Z,21.75
2018-07-13T21:09:08.763Z,21.70
2018-07-13T21:11:39.033Z,21.71
2018-07-13T21:14:09.124Z,21.80
2018-07-13T21:16:39.198Z,21.76
2018-07-13T21:19:09.249Z,21.75
2018-07-13T21:21:39.204Z,21.82
2018-07-13T21:24:09.215Z,21.81
2018-07-13T21:26:39.218Z,21.82
2018-07-13T21:29:09.535Z,21.80
2018-07-13T21:31:39.665Z,21.87
2018-07-13T21:34:09.775Z,21.86
2018-07-13T21:36:39.878Z,21.99
2018-07-13T21:39:10.195Z,21.92
2018-07-13T21:41:40.117Z,21.94
2018-07-13T21:44:10.150Z,21.89
2018-07-13T21:46:40.114Z,21.91
2018-07-13T21:49:10.121Z,21.77
2018-07-13T21:51:39.982Z,21.73
2018-07-13T21:54:09.905Z,21.68
2018-07-13T21:56:40.028Z,21.66
2018-07-13T21:59:09.924Z,21.61
2018-07-13T22:01:39.742Z,21.58
2018-07-13T22:04:09.606Z,21.59
2018-07-13T22:06:39.458Z,21.55
2018-07-13T22:09:09.513Z,21.51
2018-07-13T22:11:39.647Z,21.47
2018-07-13T22:14:09.755Z,21.49
2018-07-13T22:16:39.724Z,21.51
2018-07-13T22:19:09.878Z,21.70
2018-07-13T22:21:39.819Z,21.62
2018-07-13T22:24:10.206Z,21.63
2018-07-13T22:26:40.100Z,21.71
2018-07-13T22:29:10.148Z,21.71
2018-07-13T22:31:39.985Z,21.62
2018-07-13T22:34:10.070Z,21.43
2018-07-13T22:36:40.033Z,21.35
2018-07-13T22:39:10.096Z,21.33
2018-07-13T22:41:40.016Z,21.27
2018-07-13T22:44:10.359Z,21.31
2018-07-13T22:46:40.358Z,21.24
2018-07-13T22:49:10.397Z,21.24
2018-07-13T22:51:40.461Z,21.20
2018-07-13T22:54:10.349Z,21.12
2018-07-13T22:56:40.405Z,21.10
2018-07-13T22:59:10.377Z,21.14
2018-07-13T23:01:40.495Z,21.17
2018-07-13T23:04:10.437Z,21.16
2018-07-13T23:06:40.695Z,21.30
2018-07-13T23:09:10.659Z,21.15
2018-07-13T23:11:41.049Z,21.20
2018-07-13T23:14:10.933Z,21.26
2018-07-13T23:16:40.961Z,21.17
2018-07-13T23:19:10.945Z,21.22
2018-07-13T23:21:41.050Z,21.29
2018-07-13T23:24:11.267Z,21.43
2018-07-13T23:26:41.343Z,21.36
2018-07-13T23:29:11.391Z,21.35
2018-07-13T23:31:41.424Z,21.39
2018-07-13T23:34:11.533Z,21.43
2018-07-13T23:36:41.688Z,21.47
2018-07-13T23:39:11.613Z,21.43
2018-07-13T23:41:42.153Z,21.44
2018-07-13T23:44:11.996Z,21.42
2018-07-13T23:46:41.888Z,21.43
2018-07-13T23:49:11.955Z,21.45
2018-07-13T23:51:41.806Z,21.43
2018-07-13T23:54:12.072Z,21.45
2018-07-13T23:56:41.944Z,21.36
2018-07-13T23:59:11.903Z,21.37
